Agra, Kansas
Current Conditions -  °F | °C
As of 1:53 AM on Friday 31 Oct 2014 (Local Time) from KHLC Reporting Station
Clear Clear  
Wind Chill:   Ceiling: Unl
Heat Index:   Visibility: 10mi
Dew Point:   Wind: 13mph
Humidity: 76%   Direction: 30°NNE
Pressure: 30.44"   Gusts: NA
Location:  39.76°N, 99.12°W
Report Text: KHLC 310653Z AUTO 03011KT 10SM CLR 04/00 A3044 RMK AO2 SLP308 T00390000
Loading
Personal Weather Stations






























Interactive Weather Map
Tropical Storm Tracking
New forecast layout! Learn more

10-Day Weather Forecast

Advertisements
Track Severe Weather on mobile